Time;durP1;ratioP1;P1;durP2;ratioP2;P2;SDS_P1;SDS_P2;PMS_P1;PMS_P2;Temp;Humidity;BMP_temperature;BMP_pressure;BME280_temperature;BME280_humidity;BME280_pressure;Samples;Min_cycle;Max_cycle;Signal;HPM_P1;HPM_P2
2023/10/27 00:02:05;;;;;;;0.00;0.00;;;;;;;;;;4983737;28;20034;-72
2023/10/27 00:04:31;;;;;;;0.00;0.00;;;;;;;;;;4984057;28;20519;-71
2023/10/27 00:06:57;;;;;;;0.00;0.00;;;;;;;;;;4986675;28;20326;-71
2023/10/27 00:09:24;;;;;;;0.00;0.00;;;;;;;;;;4990640;28;21078;-73
2023/10/27 00:11:50;;;;;;;0.00;0.00;;;;;;;;;;4981043;28;20042;-73
2023/10/27 00:14:16;;;;;;;0.00;0.00;;;;;;;;;;4984823;28;20386;-74
2023/10/27 00:16:42;;;;;;;0.00;0.00;;;;;;;;;;4983806;28;20446;-73
2023/10/27 00:19:08;;;;;;;0.00;0.00;;;;;;;;;;4988625;28;20027;-71
2023/10/27 00:21:34;;;;;;;0.00;0.00;;;;;;;;;;4975218;28;20088;-73
2023/10/27 00:24:00;;;;;;;0.00;0.00;;;;;;;;;;4983293;28;20042;-72
2023/10/27 00:26:26;;;;;;;0.00;0.00;;;;;;;;;;4982194;28;20054;-72
2023/10/27 00:28:52;;;;;;;0.00;0.00;;;;;;;;;;4985493;28;20377;-73
2023/10/27 00:31:18;;;;;;;0.00;0.00;;;;;;;;;;4982545;28;20478;-73
2023/10/27 00:33:44;;;;;;;0.00;0.00;;;;;;;;;;4985188;28;20518;-71
2023/10/27 00:36:10;;;;;;;0.00;0.00;;;;;;;;;;4987750;28;20540;-71
2023/10/27 00:38:36;;;;;;;0.00;0.00;;;;;;;;;;4978763;28;20438;-73
2023/10/27 00:41:02;;;;;;;0.00;0.00;;;;;;;;;;4971110;28;20052;-71
2023/10/27 00:43:28;;;;;;;0.00;0.00;;;;;;;;;;4980120;28;20129;-71
2023/10/27 00:45:54;;;;;;;0.00;0.00;;;;;;;;;;4990055;28;20042;-72
2023/10/27 00:48:21;;;;;;;0.00;0.00;;;;;;;;;;4969057;28;20042;-72
2023/10/27 00:50:48;;;;;;;0.00;0.00;;;;;;;;;;4983702;28;20041;-72
2023/10/27 00:53:16;;;;;;;0.00;0.00;;;;;;;;;;4988198;28;20053;-71
2023/10/27 00:55:42;;;;;;;0.00;0.00;;;;;;;;;;4984334;28;20128;-72
2023/10/27 00:58:09;;;;;;;0.00;0.00;;;;;;;;;;4990495;28;20041;-72
2023/10/27 01:00:35;;;;;;;0.00;0.00;;;;;;;;;;4991619;28;20438;-69
2023/10/27 01:03:01;;;;;;;0.00;0.00;;;;;;;;;;4987706;28;20038;-72
2023/10/27 01:05:28;;;;;;;0.00;0.00;;;;;;;;;;4987604;28;20035;-70
2023/10/27 01:07:55;;;;;;;0.00;0.00;;;;;;;;;;4982095;28;20042;-71
2023/10/27 01:10:21;;;;;;;0.00;0.00;;;;;;;;;;4984186;28;20042;-71
2023/10/27 01:12:50;;;;;;;0.00;0.00;;;;;;;;;;4979209;28;20819;-70
2023/10/27 01:15:16;;;;;;;0.00;0.00;;;;;;;;;;4982112;28;20137;-70
2023/10/27 01:17:43;;;;;;;0.00;0.00;;;;;;;;;;4987391;28;20042;-71
2023/10/27 01:20:09;;;;;;;0.00;0.00;;;;;;;;;;4987461;28;20141;-71
2023/10/27 01:23:02;;;;;;;0.00;0.00;;;;;;;;;;4981094;28;20088;-71
2023/10/27 01:25:28;;;;;;;0.00;0.00;;;;;;;;;;4977382;28;20050;-70
2023/10/27 01:27:56;;;;;;;0.00;0.00;;;;;;;;;;4984477;28;20038;-70
2023/10/27 01:30:22;;;;;;;0.00;0.00;;;;;;;;;;4979902;28;20447;-71
2023/10/27 01:32:48;;;;;;;0.00;0.00;;;;;;;;;;4978911;28;20056;-70
2023/10/27 01:35:15;;;;;;;0.00;0.00;;;;;;;;;;4981807;28;20057;-69
2023/10/27 01:37:41;;;;;;;0.00;0.00;;;;;;;;;;4983262;28;20129;-70
2023/10/27 01:40:07;;;;;;;0.00;0.00;;;;;;;;;;4985510;28;20035;-70
2023/10/27 01:42:34;;;;;;;0.00;0.00;;;;;;;;;;4986326;28;20030;-71
2023/10/27 01:45:03;;;;;;;0.00;0.00;;;;;;;;;;4989288;28;20038;-70
2023/10/27 01:47:29;;;;;;;0.00;0.00;;;;;;;;;;5002739;28;20137;-71
2023/10/27 01:49:55;;;;;;;0.00;0.00;;;;;;;;;;4998912;28;20038;-71
2023/10/27 01:52:21;;;;;;;0.00;0.00;;;;;;;;;;4982635;28;20046;-71
2023/10/27 01:54:48;;;;;;;0.00;0.00;;;;;;;;;;4984810;28;20124;-71
2023/10/27 01:57:14;;;;;;;0.00;0.00;;;;;;;;;;4991800;28;20066;-70
2023/10/27 01:59:40;;;;;;;0.00;0.00;;;;;;;;;;4992819;28;20030;-70
2023/10/27 02:02:06;;;;;;;0.00;0.00;;;;;;;;;;4986954;28;20073;-70
2023/10/27 02:04:35;;;;;;;0.00;0.00;;;;;;;;;;4990009;28;20109;-70
2023/10/27 02:07:01;;;;;;;0.00;0.00;;;;;;;;;;4993667;28;20030;-70
2023/10/27 02:09:28;;;;;;;0.00;0.00;;;;;;;;;;4985728;28;20036;-70
2023/10/27 02:11:54;;;;;;;0.00;0.00;;;;;;;;;;4985656;28;20054;-68
2023/10/27 02:14:19;;;;;;;0.00;0.00;;;;;;;;;;4984193;28;20092;-70
2023/10/27 02:16:45;;;;;;;0.00;0.00;;;;;;;;;;4983027;28;20044;-69
2023/10/27 02:19:13;;;;;;;0.00;0.00;;;;;;;;;;4982661;28;20551;-70
2023/10/27 02:21:39;;;;;;;0.00;0.00;;;;;;;;;;4980794;28;20066;-70
2023/10/27 02:24:05;;;;;;;0.00;0.00;;;;;;;;;;4980543;28;20137;-70
2023/10/27 02:26:31;;;;;;;0.00;0.00;;;;;;;;;;4989431;28;20039;-71
2023/10/27 02:28:57;;;;;;;0.00;0.00;;;;;;;;;;4981017;28;20056;-70
2023/10/27 02:31:23;;;;;;;0.00;0.00;;;;;;;;;;4974815;28;22271;-71
2023/10/27 02:33:50;;;;;;;0.00;0.00;;;;;;;;;;4988399;28;20056;-72
2023/10/27 02:36:16;;;;;;;0.00;0.00;;;;;;;;;;4961977;28;20203;-72
2023/10/27 02:38:42;;;;;;;0.00;0.00;;;;;;;;;;4991046;28;20030;-71
2023/10/27 02:41:08;;;;;;;0.00;0.00;;;;;;;;;;4985726;28;20560;-73
2023/10/27 02:43:34;;;;;;;0.00;0.00;;;;;;;;;;4988227;28;20509;-74
2023/10/27 02:46:01;;;;;;;0.00;0.00;;;;;;;;;;4985468;28;20030;-73
2023/10/27 02:48:27;;;;;;;0.00;0.00;;;;;;;;;;4999756;28;20050;-71
2023/10/27 02:50:53;;;;;;;0.00;0.00;;;;;;;;;;4986360;28;20485;-73
2023/10/27 02:53:19;;;;;;;0.00;0.00;;;;;;;;;;4977465;28;20054;-70
2023/10/27 02:55:45;;;;;;;0.00;0.00;;;;;;;;;;4973803;28;20065;-73
2023/10/27 02:58:12;;;;;;;0.00;0.00;;;;;;;;;;4981660;28;20482;-73
2023/10/27 03:00:42;;;;;;;0.00;0.00;;;;;;;;;;4982866;28;20794;-73
2023/10/27 03:03:08;;;;;;;0.00;0.00;;;;;;;;;;4985007;28;20411;-73
2023/10/27 03:05:34;;;;;;;0.00;0.00;;;;;;;;;;4986321;28;20536;-73
2023/10/27 03:08:00;;;;;;;0.00;0.00;;;;;;;;;;4989262;28;20056;-72
2023/10/27 03:10:25;;;;;;;0.00;0.00;;;;;;;;;;4999388;28;20061;-73
2023/10/27 03:12:51;;;;;;;0.00;0.00;;;;;;;;;;4987434;28;20045;-72
2023/10/27 03:15:17;;;;;;;0.00;0.00;;;;;;;;;;4992539;28;20650;-72
2023/10/27 03:17:43;;;;;;;0.00;0.00;;;;;;;;;;4984215;28;20038;-70
2023/10/27 03:20:10;;;;;;;0.00;0.00;;;;;;;;;;4993664;28;20041;-73
2023/10/27 03:22:36;;;;;;;0.00;0.00;;;;;;;;;;4985521;28;20394;-73
2023/10/27 03:25:03;;;;;;;0.00;0.00;;;;;;;;;;4990423;28;20034;-72
2023/10/27 03:27:30;;;;;;;0.00;0.00;;;;;;;;;;4996643;28;20054;-71
2023/10/27 03:29:56;;;;;;;0.00;0.00;;;;;;;;;;4984662;28;20029;-73
2023/10/27 03:32:23;;;;;;;0.00;0.00;;;;;;;;;;4980450;28;20046;-73
2023/10/27 03:34:49;;;;;;;0.00;0.00;;;;;;;;;;4989310;28;20034;-71
2023/10/27 03:37:15;;;;;;;0.00;0.00;;;;;;;;;;4981887;28;20559;-72
2023/10/27 03:39:41;;;;;;;0.00;0.00;;;;;;;;;;4979011;28;20769;-73
2023/10/27 03:42:09;;;;;;;0.00;0.00;;;;;;;;;;4971210;28;20042;-70
2023/10/27 03:44:39;;;;;;;0.00;0.00;;;;;;;;;;5012643;28;20125;-73
2023/10/27 03:47:06;;;;;;;0.00;0.00;;;;;;;;;;4984602;28;20121;-71
2023/10/27 03:49:32;;;;;;;0.00;0.00;;;;;;;;;;4985161;28;20038;-73
2023/10/27 03:51:59;;;;;;;0.00;0.00;;;;;;;;;;4988863;28;20673;-73
2023/10/27 03:54:25;;;;;;;0.00;0.00;;;;;;;;;;4985262;28;20053;-72
2023/10/27 03:56:51;;;;;;;0.00;0.00;;;;;;;;;;4990452;28;20037;-70
2023/10/27 03:59:19;;;;;;;0.00;0.00;;;;;;;;;;4987983;28;20548;-73
2023/10/27 04:01:45;;;;;;;0.00;0.00;;;;;;;;;;4987091;28;20038;-72
2023/10/27 04:04:11;;;;;;;0.00;0.00;;;;;;;;;;4985850;28;20038;-72
2023/10/27 04:06:37;;;;;;;0.00;0.00;;;;;;;;;;4982653;28;20121;-72
2023/10/27 04:09:04;;;;;;;0.00;0.00;;;;;;;;;;4985836;28;20057;-70
2023/10/27 04:11:30;;;;;;;0.00;0.00;;;;;;;;;;4979506;28;20038;-73
2023/10/27 04:13:56;;;;;;;0.00;0.00;;;;;;;;;;4977961;28;20036;-73
2023/10/27 04:16:22;;;;;;;0.00;0.00;;;;;;;;;;4984411;28;20085;-70
2023/10/27 04:18:48;;;;;;;0.00;0.00;;;;;;;;;;4979133;28;20132;-72
2023/10/27 04:21:14;;;;;;;0.00;0.00;;;;;;;;;;4976946;28;20482;-73
2023/10/27 04:23:40;;;;;;;0.00;0.00;;;;;;;;;;4988385;28;20379;-70
2023/10/27 04:26:06;;;;;;;0.00;0.00;;;;;;;;;;4986949;28;20421;-70
2023/10/27 04:28:32;;;;;;;0.00;0.00;;;;;;;;;;4983944;28;20034;-72
2023/10/27 04:30:58;;;;;;;0.00;0.00;;;;;;;;;;4967297;28;20134;-72
2023/10/27 04:33:24;;;;;;;0.00;0.00;;;;;;;;;;4976818;28;20125;-71
2023/10/27 04:35:51;;;;;;;0.00;0.00;;;;;;;;;;4987611;28;20037;-71
2023/10/27 04:38:17;;;;;;;0.00;0.00;;;;;;;;;;4977786;28;20887;-67
2023/10/27 04:40:43;;;;;;;0.00;0.00;;;;;;;;;;4974794;28;20046;-67
2023/10/27 04:43:09;;;;;;;0.00;0.00;;;;;;;;;;4992408;28;20421;-67
2023/10/27 04:45:35;;;;;;;0.00;0.00;;;;;;;;;;4990815;28;20066;-67
2023/10/27 04:48:00;;;;;;;0.00;0.00;;;;;;;;;;4987197;28;20034;-71
2023/10/27 04:50:27;;;;;;;0.00;0.00;;;;;;;;;;4980483;28;20378;-72
2023/10/27 04:52:54;;;;;;;0.00;0.00;;;;;;;;;;4979411;28;20832;-72
2023/10/27 04:55:20;;;;;;;0.00;0.00;;;;;;;;;;4979614;28;20117;-71
2023/10/27 04:57:46;;;;;;;0.00;0.00;;;;;;;;;;4987063;28;20409;-71
2023/10/27 05:00:12;;;;;;;0.00;0.00;;;;;;;;;;4981135;28;20050;-71
2023/10/27 05:02:38;;;;;;;0.00;0.00;;;;;;;;;;4981097;28;20046;-71
2023/10/27 05:05:04;;;;;;;0.00;0.00;;;;;;;;;;4982633;28;20434;-72
2023/10/27 05:07:30;;;;;;;0.00;0.00;;;;;;;;;;4980330;28;20057;-72
2023/10/27 05:09:56;;;;;;;0.00;0.00;;;;;;;;;;4986414;28;20692;-72
2023/10/27 05:12:23;;;;;;;0.00;0.00;;;;;;;;;;4992408;28;20027;-71
2023/10/27 05:14:49;;;;;;;0.00;0.00;;;;;;;;;;4976489;28;20352;-71
2023/10/27 05:17:15;;;;;;;0.00;0.00;;;;;;;;;;4978379;28;20121;-73
2023/10/27 05:19:41;;;;;;;0.00;0.00;;;;;;;;;;4988012;28;20045;-71
2023/10/27 05:22:07;;;;;;;0.00;0.00;;;;;;;;;;4984621;28;20026;-72
2023/10/27 05:24:34;;;;;;;0.00;0.00;;;;;;;;;;4979388;28;20791;-69
2023/10/27 05:27:00;;;;;;;0.00;0.00;;;;;;;;;;4975064;28;20133;-70
2023/10/27 05:29:26;;;;;;;0.00;0.00;;;;;;;;;;4981211;28;20042;-72
2023/10/27 05:31:52;;;;;;;0.00;0.00;;;;;;;;;;4982658;28;20038;-70
2023/10/27 05:34:18;;;;;;;0.00;0.00;;;;;;;;;;4984773;28;20034;-72
2023/10/27 05:36:44;;;;;;;0.00;0.00;;;;;;;;;;4983552;28;20045;-72
2023/10/27 05:39:16;;;;;;;0.00;0.00;;;;;;;;;;4980727;28;20452;-70
2023/10/27 05:41:48;;;;;;;0.00;0.00;;;;;;;;;;4984577;28;20124;-71
2023/10/27 05:44:14;;;;;;;0.00;0.00;;;;;;;;;;4987697;28;20053;-71
2023/10/27 05:46:41;;;;;;;0.00;0.00;;;;;;;;;;4983409;28;20044;-72
2023/10/27 05:49:07;;;;;;;0.00;0.00;;;;;;;;;;4990168;28;20066;-67
2023/10/27 05:51:34;;;;;;;0.00;0.00;;;;;;;;;;4991135;28;20096;-68
2023/10/27 05:54:00;;;;;;;0.00;0.00;;;;;;;;;;4996757;28;20035;-67
2023/10/27 05:56:27;;;;;;;0.00;0.00;;;;;;;;;;4986026;28;20034;-68
2023/10/27 05:58:53;;;;;;;0.00;0.00;;;;;;;;;;4982559;28;20038;-68
2023/10/27 06:01:19;;;;;;;0.00;0.00;;;;;;;;;;4984070;28;20034;-67
2023/10/27 06:03:45;;;;;;;0.00;0.00;;;;;;;;;;4982966;28;20367;-67
2023/10/27 06:06:11;;;;;;;0.00;0.00;;;;;;;;;;4983873;28;20043;-67
2023/10/27 06:08:42;;;;;;;0.00;0.00;;;;;;;;;;4979594;28;20478;-67
2023/10/27 06:11:08;;;;;;;0.00;0.00;;;;;;;;;;4988934;28;20049;-67
2023/10/27 06:13:34;;;;;;;0.00;0.00;;;;;;;;;;4986277;28;20037;-67
2023/10/27 06:16:00;;;;;;;0.00;0.00;;;;;;;;;;5002491;28;20080;-66
2023/10/27 06:18:26;;;;;;;0.00;0.00;;;;;;;;;;4979245;28;20034;-67
2023/10/27 06:20:52;;;;;;;0.00;0.00;;;;;;;;;;4971515;28;20031;-68
2023/10/27 06:23:18;;;;;;;0.00;0.00;;;;;;;;;;4977001;28;20034;-67
2023/10/27 06:25:44;;;;;;;0.00;0.00;;;;;;;;;;4984067;28;20640;-67
2023/10/27 06:28:10;;;;;;;0.00;0.00;;;;;;;;;;4988511;28;20037;-67
2023/10/27 06:30:36;;;;;;;0.00;0.00;;;;;;;;;;4984391;28;20569;-67
2023/10/27 06:33:03;;;;;;;0.00;0.00;;;;;;;;;;4981317;28;20402;-66
2023/10/27 06:35:29;;;;;;;0.00;0.00;;;;;;;;;;4986922;28;20042;-67
2023/10/27 06:37:55;;;;;;;0.00;0.00;;;;;;;;;;4978785;28;20133;-66
2023/10/27 06:40:21;;;;;;;0.00;0.00;;;;;;;;;;4979937;28;20110;-68
2023/10/27 06:42:47;;;;;;;0.00;0.00;;;;;;;;;;4983854;28;20444;-68
2023/10/27 06:45:13;;;;;;;0.00;0.00;;;;;;;;;;4977513;28;20493;-67
2023/10/27 06:47:40;;;;;;;0.00;0.00;;;;;;;;;;4978456;28;20390;-67
2023/10/27 06:50:06;;;;;;;0.00;0.00;;;;;;;;;;4981728;28;20034;-67
2023/10/27 06:52:33;;;;;;;0.00;0.00;;;;;;;;;;4978732;28;20037;-67
2023/10/27 06:54:59;;;;;;;0.00;0.00;;;;;;;;;;4984353;28;20030;-67
2023/10/27 06:57:25;;;;;;;0.00;0.00;;;;;;;;;;4983431;28;20030;-71
2023/10/27 06:59:55;;;;;;;0.00;0.00;;;;;;;;;;4982300;28;20108;-72
2023/10/27 07:02:21;;;;;;;0.00;0.00;;;;;;;;;;4981427;28;20049;-70
2023/10/27 07:04:47;;;;;;;0.00;0.00;;;;;;;;;;4982141;28;20042;-71
2023/10/27 07:07:13;;;;;;;0.00;0.00;;;;;;;;;;4987944;28;20084;-67
2023/10/27 07:09:39;;;;;;;0.00;0.00;;;;;;;;;;4987328;28;20506;-67
2023/10/27 07:12:05;;;;;;;0.00;0.00;;;;;;;;;;4976580;28;20497;-67
2023/10/27 07:14:31;;;;;;;0.00;0.00;;;;;;;;;;4988526;28;20053;-67
2023/10/27 07:16:59;;;;;;;0.00;0.00;;;;;;;;;;4984862;28;20042;-71
2023/10/27 07:19:25;;;;;;;0.00;0.00;;;;;;;;;;4981706;28;20441;-71
2023/10/27 07:21:51;;;;;;;0.00;0.00;;;;;;;;;;4990735;28;20044;-71
2023/10/27 07:24:18;;;;;;;0.00;0.00;;;;;;;;;;4987430;28;20057;-71
2023/10/27 07:26:44;;;;;;;0.00;0.00;;;;;;;;;;4990330;28;20129;-70
2023/10/27 07:29:10;;;;;;;0.00;0.00;;;;;;;;;;4977820;28;20145;-70
2023/10/27 07:31:37;;;;;;;0.00;0.00;;;;;;;;;;4983204;28;20046;-69
2023/10/27 07:34:05;;;;;;;0.00;0.00;;;;;;;;;;4987665;28;20038;-70
2023/10/27 07:36:31;;;;;;;0.00;0.00;;;;;;;;;;4979913;28;20604;-71
2023/10/27 07:38:58;;;;;;;0.00;0.00;;;;;;;;;;4980905;28;20144;-71
2023/10/27 07:41:24;;;;;;;0.00;0.00;;;;;;;;;;4982295;28;20047;-70
2023/10/27 07:43:50;;;;;;;0.00;0.00;;;;;;;;;;4981770;28;20066;-70
2023/10/27 07:46:16;;;;;;;0.00;0.00;;;;;;;;;;4980149;28;20034;-70
2023/10/27 07:48:42;;;;;;;0.00;0.00;;;;;;;;;;4982061;28;20440;-70
2023/10/27 07:51:08;;;;;;;0.00;0.00;;;;;;;;;;4979400;28;20053;-70
2023/10/27 07:53:34;;;;;;;0.00;0.00;;;;;;;;;;4984828;28;20038;-72
2023/10/27 07:56:00;;;;;;;0.00;0.00;;;;;;;;;;4987711;28;20026;-72
2023/10/27 07:58:26;;;;;;;0.00;0.00;;;;;;;;;;4988137;28;20054;-71
2023/10/27 08:00:52;;;;;;;0.00;0.00;;;;;;;;;;4980558;28;20049;-71
2023/10/27 08:03:19;;;;;;;0.00;0.00;;;;;;;;;;4980495;28;20097;-71
2023/10/27 08:05:45;;;;;;;0.00;0.00;;;;;;;;;;4988016;28;20457;-71
2023/10/27 08:08:11;;;;;;;0.00;0.00;;;;;;;;;;4979991;28;20462;-67
2023/10/27 08:10:38;;;;;;;0.00;0.00;;;;;;;;;;4979870;28;20050;-67
2023/10/27 08:13:05;;;;;;;0.00;0.00;;;;;;;;;;4982905;28;20544;-68
2023/10/27 08:15:31;;;;;;;0.00;0.00;;;;;;;;;;4980027;28;20042;-68
2023/10/27 08:17:57;;;;;;;0.00;0.00;;;;;;;;;;4981229;28;20030;-68
2023/10/27 08:20:23;;;;;;;0.00;0.00;;;;;;;;;;4980254;28;20394;-67
2023/10/27 08:22:50;;;;;;;0.00;0.00;;;;;;;;;;4981552;28;20034;-68
2023/10/27 08:25:16;;;;;;;0.00;0.00;;;;;;;;;;4987722;28;20038;-67
2023/10/27 08:27:42;;;;;;;0.00;0.00;;;;;;;;;;4988044;28;20049;-67
2023/10/27 08:30:08;;;;;;;0.00;0.00;;;;;;;;;;4984873;28;20141;-68
2023/10/27 08:32:34;;;;;;;0.00;0.00;;;;;;;;;;4980795;28;20030;-67
2023/10/27 08:35:00;;;;;;;0.00;0.00;;;;;;;;;;4978813;28;20372;-67
2023/10/27 08:37:26;;;;;;;0.00;0.00;;;;;;;;;;4978702;28;20088;-67
2023/10/27 08:39:53;;;;;;;0.00;0.00;;;;;;;;;;4981826;28;20453;-67
2023/10/27 08:42:19;;;;;;;0.00;0.00;;;;;;;;;;4982911;28;20030;-68
2023/10/27 08:44:45;;;;;;;0.00;0.00;;;;;;;;;;4981232;28;20700;-67
2023/10/27 08:47:12;;;;;;;0.00;0.00;;;;;;;;;;4995442;28;20042;-68
2023/10/27 08:49:38;;;;;;;0.00;0.00;;;;;;;;;;4978935;28;20041;-68
2023/10/27 08:52:05;;;;;;;0.00;0.00;;;;;;;;;;4979176;28;20061;-68
2023/10/27 08:54:31;;;;;;;0.00;0.00;;;;;;;;;;4977999;28;20635;-68
2023/10/27 08:56:57;;;;;;;0.00;0.00;;;;;;;;;;4977142;28;20145;-68
2023/10/27 08:59:23;;;;;;;0.00;0.00;;;;;;;;;;4975696;28;20189;-69
2023/10/27 09:01:49;;;;;;;0.00;0.00;;;;;;;;;;4978818;28;20042;-68
2023/10/27 09:04:20;;;;;;;0.00;0.00;;;;;;;;;;4981254;28;20048;-68
2023/10/27 09:06:46;;;;;;;0.00;0.00;;;;;;;;;;4986912;28;20085;-69
2023/10/27 09:09:12;;;;;;;0.00;0.00;;;;;;;;;;4979095;28;20030;-69
2023/10/27 09:11:42;;;;;;;0.00;0.00;;;;;;;;;;4978195;28;20671;-68
2023/10/27 09:14:18;;;;;;;0.00;0.00;;;;;;;;;;4979973;28;20482;-68
2023/10/27 09:16:44;;;;;;;0.00;0.00;;;;;;;;;;4979976;28;20042;-68
2023/10/27 09:19:27;;;;;;;0.00;0.00;;;;;;;;;;4992959;28;20416;-68
2023/10/27 09:21:54;;;;;;;0.00;0.00;;;;;;;;;;4981204;28;20034;-68
2023/10/27 09:24:24;;;;;;;0.00;0.00;;;;;;;;;;4979799;28;20042;-68
2023/10/27 09:26:50;;;;;;;0.00;0.00;;;;;;;;;;4979553;28;20041;-68
2023/10/27 09:29:16;;;;;;;0.00;0.00;;;;;;;;;;4979579;28;20038;-68
2023/10/27 09:31:43;;;;;;;0.00;0.00;;;;;;;;;;4982028;28;20449;-68
2023/10/27 09:34:29;;;;;;;0.00;0.00;;;;;;;;;;4970462;28;20383;-68
2023/10/27 09:36:57;;;;;;;0.00;0.00;;;;;;;;;;4975117;28;20417;-68
2023/10/27 09:39:23;;;;;;;0.00;0.00;;;;;;;;;;4975864;28;20045;-71
2023/10/27 09:41:55;;;;;;;0.00;0.00;;;;;;;;;;4980388;28;20170;-70
2023/10/27 09:44:24;;;;;;;0.00;0.00;;;;;;;;;;4982802;28;20129;-70
2023/10/27 09:46:58;;;;;;;0.00;0.00;;;;;;;;;;4979740;28;20365;-67
2023/10/27 09:49:33;;;;;;;0.00;0.00;;;;;;;;;;4975435;28;20440;-67
2023/10/27 09:52:00;;;;;;;0.00;0.00;;;;;;;;;;4975925;28;20034;-67
2023/10/27 09:54:29;;;;;;;0.00;0.00;;;;;;;;;;4980233;28;20406;-68
2023/10/27 09:56:56;;;;;;;0.00;0.00;;;;;;;;;;4981893;28;20529;-68
2023/10/27 09:59:23;;;;;;;0.00;0.00;;;;;;;;;;4976821;28;20038;-68
2023/10/27 10:01:48;;;;;;;0.00;0.00;;;;;;;;;;4977424;28;20054;-68
2023/10/27 10:04:14;;;;;;;0.00;0.00;;;;;;;;;;4979913;28;20034;-67
2023/10/27 10:06:41;;;;;;;0.00;0.00;;;;;;;;;;4963648;28;20609;-67
2023/10/27 10:09:11;;;;;;;0.00;0.00;;;;;;;;;;4977340;28;20042;-67
2023/10/27 10:11:47;;;;;;;0.00;0.00;;;;;;;;;;4985721;28;20231;-67
2023/10/27 10:14:33;;;;;;;0.00;0.00;;;;;;;;;;4982625;28;20040;-67
2023/10/27 10:16:59;;;;;;;0.00;0.00;;;;;;;;;;4978237;28;20092;-67
2023/10/27 10:19:43;;;;;;;0.00;0.00;;;;;;;;;;4996073;28;20278;-68
2023/10/27 10:22:09;;;;;;;0.00;0.00;;;;;;;;;;4985193;28;20061;-67
2023/10/27 10:24:35;;;;;;;0.00;0.00;;;;;;;;;;4992268;28;20276;-67
2023/10/27 10:27:10;;;;;;;0.00;0.00;;;;;;;;;;4990856;28;20030;-67
2023/10/27 10:29:37;;;;;;;0.00;0.00;;;;;;;;;;4992410;28;20398;-67
2023/10/27 10:32:21;;;;;;;0.00;0.00;;;;;;;;;;4991420;28;20047;-68
2023/10/27 10:35:06;;;;;;;0.00;0.00;;;;;;;;;;4986701;28;20034;-67
2023/10/27 10:37:32;;;;;;;0.00;0.00;;;;;;;;;;4965090;28;20137;-67
2023/10/27 10:40:18;;;;;;;0.00;0.00;;;;;;;;;;4984247;28;20046;-67
2023/10/27 10:43:02;;;;;;;0.00;0.00;;;;;;;;;;4989774;28;20114;-67
2023/10/27 10:45:28;;;;;;;0.00;0.00;;;;;;;;;;5003107;28;20422;-67
2023/10/27 10:47:55;;;;;;;0.00;0.00;;;;;;;;;;4985235;28;20107;-68
2023/10/27 10:50:28;;;;;;;0.00;0.00;;;;;;;;;;4997103;28;20049;-67
2023/10/27 10:53:17;;;;;;;0.00;0.00;;;;;;;;;;4982348;28;20149;-67
2023/10/27 10:55:44;;;;;;;0.00;0.00;;;;;;;;;;4986225;28;20034;-67
2023/10/27 10:58:10;;;;;;;0.00;0.00;;;;;;;;;;4984036;28;20045;-68
2023/10/27 11:00:36;;;;;;;0.00;0.00;;;;;;;;;;4980113;28;20250;-68
2023/10/27 11:03:06;;;;;;;0.00;0.00;;;;;;;;;;4978020;28;20509;-68
2023/10/27 11:05:32;;;;;;;0.00;0.00;;;;;;;;;;4988859;28;20053;-69
2023/10/27 11:07:58;;;;;;;0.00;0.00;;;;;;;;;;4984796;28;20112;-69
2023/10/27 11:10:24;;;;;;;0.00;0.00;;;;;;;;;;4979655;28;20100;-70
2023/10/27 11:12:50;;;;;;;0.00;0.00;;;;;;;;;;4989822;28;20049;-71
2023/10/27 11:15:36;;;;;;;0.00;0.00;;;;;;;;;;4991821;28;20035;-72
2023/10/27 11:18:08;;;;;;;0.00;0.00;;;;;;;;;;4979975;28;20026;-72
2023/10/27 11:20:35;;;;;;;0.00;0.00;;;;;;;;;;4980537;28;20072;-71
2023/10/27 11:23:10;;;;;;;0.00;0.00;;;;;;;;;;4982099;28;20034;-71
2023/10/27 11:25:36;;;;;;;0.00;0.00;;;;;;;;;;5015139;28;20049;-71
2023/10/27 11:28:18;;;;;;;0.00;0.00;;;;;;;;;;5003940;28;20383;-69
2023/10/27 11:30:44;;;;;;;0.00;0.00;;;;;;;;;;4973782;28;20034;-71
2023/10/27 11:33:10;;;;;;;0.00;0.00;;;;;;;;;;4976387;28;20034;-69
2023/10/27 11:35:45;;;;;;;0.00;0.00;;;;;;;;;;4981975;28;20525;-70
2023/10/27 11:38:12;;;;;;;0.00;0.00;;;;;;;;;;4966357;28;20065;-69
2023/10/27 11:40:38;;;;;;;0.00;0.00;;;;;;;;;;4983584;28;20046;-69
2023/10/27 11:43:04;;;;;;;0.00;0.00;;;;;;;;;;4978244;28;20046;-69
2023/10/27 11:45:30;;;;;;;0.00;0.00;;;;;;;;;;4978698;28;20314;-69
2023/10/27 11:47:56;;;;;;;0.00;0.00;;;;;;;;;;4985152;28;20398;-69
2023/10/27 11:50:22;;;;;;;0.00;0.00;;;;;;;;;;4978450;28;20116;-68
2023/10/27 11:52:48;;;;;;;0.00;0.00;;;;;;;;;;4981513;28;20030;-69
2023/10/27 11:55:14;;;;;;;0.00;0.00;;;;;;;;;;4979121;28;20534;-68
2023/10/27 11:57:40;;;;;;;0.00;0.00;;;;;;;;;;4990254;28;20049;-68
2023/10/27 12:00:08;;;;;;;0.00;0.00;;;;;;;;;;4978906;28;20038;-68
2023/10/27 12:02:34;;;;;;;0.00;0.00;;;;;;;;;;4987168;28;20061;-68
2023/10/27 12:05:00;;;;;;;0.00;0.00;;;;;;;;;;4980499;28;20113;-68
2023/10/27 12:07:26;;;;;;;0.00;0.00;;;;;;;;;;4983703;28;20429;-67
2023/10/27 12:09:52;;;;;;;0.00;0.00;;;;;;;;;;4982751;28;20045;-67
2023/10/27 12:12:18;;;;;;;0.00;0.00;;;;;;;;;;4987895;28;20075;-67
2023/10/27 12:14:44;;;;;;;0.00;0.00;;;;;;;;;;4984535;28;20126;-67
2023/10/27 12:17:10;;;;;;;0.00;0.00;;;;;;;;;;4982650;28;20505;-67
2023/10/27 12:19:37;;;;;;;0.00;0.00;;;;;;;;;;4981635;28;20110;-67
2023/10/27 12:22:04;;;;;;;0.00;0.00;;;;;;;;;;4986524;28;20542;-67
2023/10/27 12:24:33;;;;;;;0.00;0.00;;;;;;;;;;4985382;28;20038;-67
2023/10/27 12:26:59;;;;;;;0.00;0.00;;;;;;;;;;4983907;28;20048;-67
2023/10/27 12:29:26;;;;;;;0.00;0.00;;;;;;;;;;4981027;28;20384;-68
2023/10/27 12:31:53;;;;;;;0.00;0.00;;;;;;;;;;4983127;28;20117;-68
2023/10/27 12:34:19;;;;;;;0.00;0.00;;;;;;;;;;4972143;28;20467;-68
2023/10/27 12:36:45;;;;;;;0.00;0.00;;;;;;;;;;4986275;28;20106;-68
2023/10/27 12:39:11;;;;;;;0.00;0.00;;;;;;;;;;4982164;28;20160;-68
2023/10/27 12:41:37;;;;;;;0.00;0.00;;;;;;;;;;4982445;28;20383;-71
2023/10/27 12:44:04;;;;;;;0.00;0.00;;;;;;;;;;4977415;28;20045;-70
2023/10/27 12:46:30;;;;;;;0.00;0.00;;;;;;;;;;4986996;28;20045;-69
2023/10/27 12:48:56;;;;;;;0.00;0.00;;;;;;;;;;4981214;28;20026;-70
2023/10/27 12:51:22;;;;;;;0.00;0.00;;;;;;;;;;4985106;28;20533;-70
2023/10/27 12:53:48;;;;;;;0.00;0.00;;;;;;;;;;4980840;28;20084;-70
2023/10/27 12:56:14;;;;;;;0.00;0.00;;;;;;;;;;4983351;28;20840;-70
2023/10/27 12:58:41;;;;;;;0.00;0.00;;;;;;;;;;4981748;28;20754;-69
2023/10/27 13:01:07;;;;;;;0.00;0.00;;;;;;;;;;4982209;28;20171;-69
2023/10/27 13:03:33;;;;;;;0.00;0.00;;;;;;;;;;4980640;28;20030;-69
2023/10/27 13:05:59;;;;;;;0.00;0.00;;;;;;;;;;4979681;28;20030;-69
2023/10/27 13:08:25;;;;;;;0.00;0.00;;;;;;;;;;4990989;28;20031;-70
2023/10/27 13:10:51;;;;;;;0.00;0.00;;;;;;;;;;4985557;28;20039;-71
2023/10/27 13:13:17;;;;;;;0.00;0.00;;;;;;;;;;4989929;28;20022;-70
2023/10/27 13:15:43;;;;;;;0.00;0.00;;;;;;;;;;4974412;28;20045;-70
2023/10/27 13:18:09;;;;;;;0.00;0.00;;;;;;;;;;4979266;28;20043;-70
2023/10/27 13:20:35;;;;;;;0.00;0.00;;;;;;;;;;4981594;28;20359;-71
2023/10/27 13:23:02;;;;;;;0.00;0.00;;;;;;;;;;4980041;28;20027;-70
2023/10/27 13:25:31;;;;;;;0.00;0.00;;;;;;;;;;4983429;28;20041;-69
2023/10/27 13:27:57;;;;;;;0.00;0.00;;;;;;;;;;4971606;28;20046;-71
2023/10/27 13:30:23;;;;;;;0.00;0.00;;;;;;;;;;4981716;28;20137;-71
2023/10/27 13:32:52;;;;;;;0.00;0.00;;;;;;;;;;4980427;28;20546;-72
2023/10/27 13:35:20;;;;;;;0.00;0.00;;;;;;;;;;4981133;28;20779;-71
2023/10/27 13:37:46;;;;;;;0.00;0.00;;;;;;;;;;4985804;28;20049;-71
2023/10/27 13:40:18;;;;;;;0.00;0.00;;;;;;;;;;4983485;28;20041;-70
2023/10/27 13:42:44;;;;;;;0.00;0.00;;;;;;;;;;4976652;28;20706;-70
2023/10/27 13:45:13;;;;;;;0.00;0.00;;;;;;;;;;4982669;28;20048;-70
2023/10/27 13:47:39;;;;;;;0.00;0.00;;;;;;;;;;4977835;28;20037;-70
2023/10/27 13:50:07;;;;;;;0.00;0.00;;;;;;;;;;4988032;28;20045;-70
2023/10/27 13:52:33;;;;;;;0.00;0.00;;;;;;;;;;4988447;28;20057;-70
2023/10/27 13:54:59;;;;;;;0.00;0.00;;;;;;;;;;4992895;28;20033;-70
2023/10/27 13:57:26;;;;;;;0.00;0.00;;;;;;;;;;4982566;28;20391;-70
2023/10/27 13:59:52;;;;;;;0.00;0.00;;;;;;;;;;4985127;28;20022;-70
2023/10/27 14:02:18;;;;;;;0.00;0.00;;;;;;;;;;4982287;28;20617;-70
2023/10/27 14:04:44;;;;;;;0.00;0.00;;;;;;;;;;4984647;28;20057;-70
2023/10/27 14:07:10;;;;;;;0.00;0.00;;;;;;;;;;4987343;28;20061;-69
2023/10/27 14:09:36;;;;;;;0.00;0.00;;;;;;;;;;4990068;28;20092;-70
2023/10/27 14:12:02;;;;;;;0.00;0.00;;;;;;;;;;4993232;28;20030;-70
2023/10/27 14:14:30;;;;;;;0.00;0.00;;;;;;;;;;4999414;28;20359;-69
2023/10/27 14:16:59;;;;;;;0.00;0.00;;;;;;;;;;4989144;28;20038;-70
2023/10/27 14:19:27;;;;;;;0.00;0.00;;;;;;;;;;4987141;28;20033;-70
2023/10/27 14:21:53;;;;;;;0.00;0.00;;;;;;;;;;4984407;28;20111;-69
2023/10/27 14:24:19;;;;;;;0.00;0.00;;;;;;;;;;4988485;28;20426;-70
2023/10/27 14:26:46;;;;;;;0.00;0.00;;;;;;;;;;4987588;28;20034;-70
2023/10/27 14:29:12;;;;;;;0.00;0.00;;;;;;;;;;4985584;28;20096;-69
2023/10/27 14:31:39;;;;;;;0.00;0.00;;;;;;;;;;4981912;28;20046;-70
2023/10/27 14:34:08;;;;;;;0.00;0.00;;;;;;;;;;4989633;28;20042;-69
2023/10/27 14:36:34;;;;;;;0.00;0.00;;;;;;;;;;4981616;28;20158;-70
2023/10/27 14:39:00;;;;;;;0.00;0.00;;;;;;;;;;4976556;28;20415;-70
2023/10/27 14:41:26;;;;;;;0.00;0.00;;;;;;;;;;4989011;28;20486;-69
2023/10/27 14:43:53;;;;;;;0.00;0.00;;;;;;;;;;4970416;28;20568;-67